sensor_id;sensor_type;location;lat;lon;timestamp;pressure;altitude;pressure_sealevel;temperature;humidity
75221;BME280;63802;53.232;6.570;2023-12-20T00:00:00;101168.00;;;4.85;100.00
75221;BME280;63802;53.232;6.570;2023-12-20T00:02:26;101162.91;;;4.84;100.00
75221;BME280;63802;53.232;6.570;2023-12-20T00:04:51;101142.72;;;4.72;100.00
75221;BME280;63802;53.232;6.570;2023-12-20T00:07:17;101152.25;;;4.87;100.00
75221;BME280;63802;53.232;6.570;2023-12-20T00:09:42;101152.25;;;4.87;100.00
75221;BME280;63802;53.232;6.570;2023-12-20T00:12:08;101153.53;;;4.81;100.00
75221;BME280;63802;53.232;6.570;2023-12-20T00:14:33;101154.34;;;4.82;100.00
75221;BME280;63802;53.232;6.570;2023-12-20T00:16:58;101151.94;;;4.80;100.00
75221;BME280;63802;53.232;6.570;2023-12-20T00:19:27;101147.94;;;4.78;100.00
75221;BME280;63802;53.232;6.570;2023-12-20T00:21:52;101148.75;;;4.78;100.00
75221;BME280;63802;53.232;6.570;2023-12-20T00:24:17;101129.78;;;4.61;100.00
75221;BME280;63802;53.232;6.570;2023-12-20T00:26:43;101157.50;;;4.75;100.00
75221;BME280;63802;53.232;6.570;2023-12-20T00:29:08;101152.88;;;4.67;100.00
75221;BME280;63802;53.232;6.570;2023-12-20T00:31:33;101156.53;;;4.71;100.00
75221;BME280;63802;53.232;6.570;2023-12-20T00:33:59;101152.25;;;4.70;100.00
75221;BME280;63802;53.232;6.570;2023-12-20T00:36:24;101146.34;;;4.68;100.00
75221;BME280;63802;53.232;6.570;2023-12-20T00:38:50;101136.00;;;4.53;100.00
75221;BME280;63802;53.232;6.570;2023-12-20T00:41:16;101155.56;;;4.67;100.00
75221;BME280;63802;53.232;6.570;2023-12-20T00:43:42;101152.06;;;4.66;100.00
75221;BME280;63802;53.232;6.570;2023-12-20T00:46:07;101161.63;;;4.81;100.00
75221;BME280;63802;53.232;6.570;2023-12-20T00:48:33;101154.97;;;4.87;100.00
75221;BME280;63802;53.232;6.570;2023-12-20T00:50:58;101154.66;;;4.89;100.00
75221;BME280;63802;53.232;6.570;2023-12-20T00:53:24;101149.41;;;4.92;100.00
75221;BME280;63802;53.232;6.570;2023-12-20T00:55:49;101121.09;;;4.81;100.00
75221;BME280;63802;53.232;6.570;2023-12-20T00:58:15;101137.63;;;4.88;100.00
75221;BME280;63802;53.232;6.570;2023-12-20T01:00:41;101123.94;;;4.76;100.00
75221;BME280;63802;53.232;6.570;2023-12-20T01:03:08;101115.03;;;4.67;100.00
75221;BME280;63802;53.232;6.570;2023-12-20T01:05:33;101114.06;;;4.71;100.00
75221;BME280;63802;53.232;6.570;2023-12-20T01:07:59;101112.19;;;4.72;100.00
75221;BME280;63802;53.232;6.570;2023-12-20T01:10:25;101116.16;;;4.74;100.00
75221;BME280;63802;53.232;6.570;2023-12-20T01:12:53;101121.72;;;4.78;100.00
75221;BME280;63802;53.232;6.570;2023-12-20T01:15:18;101086.69;;;4.56;100.00
75221;BME280;63802;53.232;6.570;2023-12-20T01:17:44;101112.19;;;4.72;100.00
75221;BME280;63802;53.232;6.570;2023-12-20T01:20:09;101115.97;;;4.71;100.00
75221;BME280;63802;53.232;6.570;2023-12-20T01:22:35;101113.75;;;4.73;100.00
75221;BME280;63802;53.232;6.570;2023-12-20T01:25:01;101104.53;;;4.74;100.00
75221;BME280;63802;53.232;6.570;2023-12-20T01:27:27;101099.13;;;4.74;100.00
75221;BME280;63802;53.232;6.570;2023-12-20T01:29:52;101092.78;;;4.70;100.00
75221;BME280;63802;53.232;6.570;2023-12-20T01:32:18;101105.50;;;4.78;100.00
75221;BME280;63802;53.232;6.570;2023-12-20T01:34:43;101099.94;;;4.83;100.00
75221;BME280;63802;53.232;6.570;2023-12-20T01:37:09;101081.34;;;4.90;100.00
75221;BME280;63802;53.232;6.570;2023-12-20T01:39:34;101109.97;;;5.08;100.00
75221;BME280;63802;53.232;6.570;2023-12-20T01:41:59;101114.56;;;5.16;100.00
75221;BME280;63802;53.232;6.570;2023-12-20T01:44:25;101112.19;;;5.23;100.00
75221;BME280;63802;53.232;6.570;2023-12-20T01:46:51;101112.69;;;5.25;100.00
75221;BME280;63802;53.232;6.570;2023-12-20T01:49:17;101083.88;;;5.12;100.00
75221;BME280;63802;53.232;6.570;2023-12-20T01:51:43;101100.28;;;5.16;100.00
75221;BME280;63802;53.232;6.570;2023-12-20T01:54:09;101099.63;;;5.19;100.00
75221;BME280;63802;53.232;6.570;2023-12-20T01:56:34;101103.91;;;5.11;100.00
75221;BME280;63802;53.232;6.570;2023-12-20T01:59:00;101086.44;;;5.00;100.00
75221;BME280;63802;53.232;6.570;2023-12-20T02:01:29;101105.34;;;5.09;100.00
75221;BME280;63802;53.232;6.570;2023-12-20T02:03:55;101108.84;;;5.09;100.00
75221;BME280;63802;53.232;6.570;2023-12-20T02:06:21;101099.47;;;5.15;100.00
75221;BME280;63802;53.232;6.570;2023-12-20T02:08:49;101090.06;;;5.04;100.00
75221;BME280;63802;53.232;6.570;2023-12-20T02:11:16;101089.13;;;5.09;100.00
75221;BME280;63802;53.232;6.570;2023-12-20T02:13:41;101085.31;;;5.10;100.00
75221;BME280;63802;53.232;6.570;2023-12-20T02:16:07;101080.53;;;5.07;100.00
75221;BME280;63802;53.232;6.570;2023-12-20T02:18:32;101081.81;;;5.01;100.00
75221;BME280;63802;53.232;6.570;2023-12-20T02:20:58;101087.53;;;4.99;100.00
75221;BME280;63802;53.232;6.570;2023-12-20T02:23:23;101085.31;;;4.93;100.00
75221;BME280;63802;53.232;6.570;2023-12-20T02:25:49;101071.94;;;4.88;100.00
75221;BME280;63802;53.232;6.570;2023-12-20T02:28:14;101082.47;;;4.89;100.00
75221;BME280;63802;53.232;6.570;2023-12-20T02:30:39;101080.84;;;4.88;100.00
75221;BME280;63802;53.232;6.570;2023-12-20T02:33:07;101042.19;;;4.70;100.00
75221;BME280;63802;53.232;6.570;2023-12-20T02:35:36;101062.56;;;4.85;100.00
75221;BME280;63802;53.232;6.570;2023-12-20T02:38:01;101067.34;;;4.88;100.00
75221;BME280;63802;53.232;6.570;2023-12-20T02:40:27;101067.00;;;4.90;100.00
75221;BME280;63802;53.232;6.570;2023-12-20T02:42:52;101074.34;;;4.89;100.00
75221;BME280;63802;53.232;6.570;2023-12-20T02:45:18;101061.59;;;5.07;100.00
75221;BME280;63802;53.232;6.570;2023-12-20T02:47:43;101058.25;;;5.18;100.00
75221;BME280;63802;53.232;6.570;2023-12-20T02:50:08;101055.53;;;5.18;100.00
75221;BME280;63802;53.232;6.570;2023-12-20T02:52:34;101052.38;;;5.16;100.00
75221;BME280;63802;53.232;6.570;2023-12-20T02:54:59;101054.28;;;5.07;100.00
75221;BME280;63802;53.232;6.570;2023-12-20T02:57:24;101031.72;;;5.03;100.00
75221;BME280;63802;53.232;6.570;2023-12-20T02:59:50;101054.59;;;5.14;100.00
75221;BME280;63802;53.232;6.570;2023-12-20T03:02:18;101048.09;;;5.15;100.00
75221;BME280;63802;53.232;6.570;2023-12-20T03:04:44;101049.81;;;5.11;100.00
75221;BME280;63802;53.232;6.570;2023-12-20T03:07:09;101045.06;;;5.08;100.00
75221;BME280;63802;53.232;6.570;2023-12-20T03:09:34;101006.25;;;4.87;100.00
75221;BME280;63802;53.232;6.570;2023-12-20T03:12:00;101036.47;;;5.06;100.00
75221;BME280;63802;53.232;6.570;2023-12-20T03:14:25;101031.06;;;5.06;100.00
75221;BME280;63802;53.232;6.570;2023-12-20T03:16:51;101024.06;;;5.05;100.00
75221;BME280;63802;53.232;6.570;2023-12-20T03:19:17;101010.22;;;5.07;100.00
75221;BME280;63802;53.232;6.570;2023-12-20T03:21:44;101034.22;;;5.25;100.00
75221;BME280;63802;53.232;6.570;2023-12-20T03:24:09;101045.34;;;5.32;100.00
75221;BME280;63802;53.232;6.570;2023-12-20T03:26:34;101004.47;;;5.25;100.00
75221;BME280;63802;53.232;6.570;2023-12-20T03:29:00;101038.59;;;5.47;100.00
75221;BME280;63802;53.232;6.570;2023-12-20T03:31:25;101033.41;;;5.42;100.00
75221;BME280;63802;53.232;6.570;2023-12-20T03:33:50;101032.59;;;5.41;100.00
75221;BME280;63802;53.232;6.570;2023-12-20T03:36:17;101031.97;;;5.45;100.00
75221;BME280;63802;53.232;6.570;2023-12-20T03:38:43;101016.88;;;5.35;100.00
75221;BME280;63802;53.232;6.570;2023-12-20T03:41:08;101014.47;;;5.33;100.00
75221;BME280;63802;53.232;6.570;2023-12-20T03:43:34;101013.53;;;5.29;100.00
75221;BME280;63802;53.232;6.570;2023-12-20T03:45:59;101015.25;;;5.34;100.00
75221;BME280;63802;53.232;6.570;2023-12-20T03:48:25;101000.47;;;5.31;100.00
75221;BME280;63802;53.232;6.570;2023-12-20T03:50:50;100999.69;;;5.22;100.00
75221;BME280;63802;53.232;6.570;2023-12-20T03:53:16;101008.25;;;5.33;100.00
75221;BME280;63802;53.232;6.570;2023-12-20T03:55:41;101003.63;;;5.33;100.00
75221;BME280;63802;53.232;6.570;2023-12-20T03:58:06;100991.25;;;5.32;100.00
75221;BME280;63802;53.232;6.570;2023-12-20T04:00:32;100996.47;;;5.37;100.00
75221;BME280;63802;53.232;6.570;2023-12-20T04:02:57;100977.88;;;5.27;100.00
75221;BME280;63802;53.232;6.570;2023-12-20T04:05:23;100985.22;;;5.18;100.00
75221;BME280;63802;53.232;6.570;2023-12-20T04:07:48;100992.53;;;5.26;100.00
75221;BME280;63802;53.232;6.570;2023-12-20T04:10:15;100990.78;;;5.22;100.00
75221;BME280;63802;53.232;6.570;2023-12-20T04:12:40;100978.88;;;5.14;100.00
75221;BME280;63802;53.232;6.570;2023-12-20T04:15:09;100992.69;;;5.21;100.00
75221;BME280;63802;53.232;6.570;2023-12-20T04:17:35;100970.44;;;5.16;100.00
75221;BME280;63802;53.232;6.570;2023-12-20T04:20:01;100990.94;;;5.25;100.00
75221;BME280;63802;53.232;6.570;2023-12-20T04:22:27;100974.03;;;5.28;100.00
75221;BME280;63802;53.232;6.570;2023-12-20T04:24:52;100973.13;;;5.24;100.00
75221;BME280;63802;53.232;6.570;2023-12-20T04:27:18;100970.25;;;5.29;100.00
75221;BME280;63802;53.232;6.570;2023-12-20T04:29:43;100979.63;;;5.32;100.00
75221;BME280;63802;53.232;6.570;2023-12-20T04:32:09;100968.63;;;5.37;100.00
75221;BME280;63802;53.232;6.570;2023-12-20T04:34:34;100967.94;;;5.49;100.00
75221;BME280;63802;53.232;6.570;2023-12-20T04:37:00;100983.44;;;5.69;100.00
75221;BME280;63802;53.232;6.570;2023-12-20T04:39:26;100965.63;;;5.68;100.00
75221;BME280;63802;53.232;6.570;2023-12-20T04:41:52;100966.84;;;5.79;100.00
75221;BME280;63802;53.232;6.570;2023-12-20T04:44:17;100979.56;;;5.87;100.00
75221;BME280;63802;53.232;6.570;2023-12-20T04:46:46;100981.16;;;5.88;100.00
75221;BME280;63802;53.232;6.570;2023-12-20T04:49:11;100987.19;;;5.93;100.00
75221;BME280;63802;53.232;6.570;2023-12-20T04:51:36;100982.09;;;5.92;100.00
75221;BME280;63802;53.232;6.570;2023-12-20T04:54:03;100988.44;;;5.96;100.00
75221;BME280;63802;53.232;6.570;2023-12-20T04:56:28;101003.91;;;5.95;100.00
75221;BME280;63802;53.232;6.570;2023-12-20T04:58:53;100996.38;;;6.01;100.00
75221;BME280;63802;53.232;6.570;2023-12-20T05:01:19;100987.34;;;5.97;100.00
75221;BME280;63802;53.232;6.570;2023-12-20T05:03:44;100993.59;;;5.89;100.00
75221;BME280;63802;53.232;6.570;2023-12-20T05:06:10;101001.53;;;5.94;100.00
75221;BME280;63802;53.232;6.570;2023-12-20T05:08:35;101004.03;;;5.99;100.00
75221;BME280;63802;53.232;6.570;2023-12-20T05:11:01;101016.44;;;6.00;100.00
75221;BME280;63802;53.232;6.570;2023-12-20T05:13:27;100985.78;;;5.79;100.00
75221;BME280;63802;53.232;6.570;2023-12-20T05:15:52;100997.69;;;5.95;100.00
75221;BME280;63802;53.232;6.570;2023-12-20T05:18:17;100980.19;;;5.92;100.00
75221;BME280;63802;53.232;6.570;2023-12-20T05:20:43;100971.00;;;5.85;100.00
75221;BME280;63802;53.232;6.570;2023-12-20T05:23:08;101003.19;;;6.07;100.00
75221;BME280;63802;53.232;6.570;2023-12-20T05:25:34;100969.22;;;5.80;100.00
75221;BME280;63802;53.232;6.570;2023-12-20T05:27:59;100999.56;;;6.03;100.00
75221;BME280;63802;53.232;6.570;2023-12-20T05:30:24;100991.88;;;6.05;100.00
75221;BME280;63802;53.232;6.570;2023-12-20T05:32:50;100994.59;;;6.05;100.00
75221;BME280;63802;53.232;6.570;2023-12-20T05:35:15;100985.41;;;5.97;100.00
75221;BME280;63802;53.232;6.570;2023-12-20T05:37:41;100982.03;;;6.00;100.00
75221;BME280;63802;53.232;6.570;2023-12-20T05:40:07;100948.66;;;5.88;100.00
75221;BME280;63802;53.232;6.570;2023-12-20T05:42:35;100975.63;;;6.05;100.00
75221;BME280;63802;53.232;6.570;2023-12-20T05:45:01;100973.00;;;6.17;100.00
75221;BME280;63802;53.232;6.570;2023-12-20T05:47:26;100925.03;;;5.97;100.00
75221;BME280;63802;53.232;6.570;2023-12-20T05:49:51;100972.09;;;6.13;100.00
75221;BME280;63802;53.232;6.570;2023-12-20T05:52:17;100982.94;;;6.13;100.00
75221;BME280;63802;53.232;6.570;2023-12-20T05:54:42;100955.41;;;6.02;100.00
75221;BME280;63802;53.232;6.570;2023-12-20T05:57:08;100955.94;;;5.96;100.00
75221;BME280;63802;53.232;6.570;2023-12-20T05:59:33;100989.94;;;6.14;100.00
75221;BME280;63802;53.232;6.570;2023-12-20T06:01:59;100944.84;;;5.89;100.00
75221;BME280;63802;53.232;6.570;2023-12-20T06:04:24;100975.53;;;6.22;100.00
75221;BME280;63802;53.232;6.570;2023-12-20T06:06:49;100982.81;;;6.30;100.00
75221;BME280;63802;53.232;6.570;2023-12-20T06:09:15;100980.31;;;6.25;100.00
75221;BME280;63802;53.232;6.570;2023-12-20T06:11:40;100965.31;;;6.28;100.00
75221;BME280;63802;53.232;6.570;2023-12-20T06:14:06;100971.38;;;6.25;100.00
75221;BME280;63802;53.232;6.570;2023-12-20T06:16:31;100958.88;;;6.32;100.00
75221;BME280;63802;53.232;6.570;2023-12-20T06:18:57;100968.69;;;6.45;100.00
75221;BME280;63802;53.232;6.570;2023-12-20T06:21:22;100975.28;;;6.56;100.00
75221;BME280;63802;53.232;6.570;2023-12-20T06:23:48;100982.00;;;6.50;100.00
75221;BME280;63802;53.232;6.570;2023-12-20T06:26:13;100972.50;;;6.44;100.00
75221;BME280;63802;53.232;6.570;2023-12-20T06:28:39;100974.75;;;6.42;100.00
75221;BME280;63802;53.232;6.570;2023-12-20T06:31:04;100977.78;;;6.41;100.00
75221;BME280;63802;53.232;6.570;2023-12-20T06:33:30;100962.31;;;6.41;100.00
75221;BME280;63802;53.232;6.570;2023-12-20T06:35:56;100938.41;;;6.23;100.00
75221;BME280;63802;53.232;6.570;2023-12-20T06:38:22;100968.88;;;6.40;100.00
75221;BME280;63802;53.232;6.570;2023-12-20T06:40:48;100968.25;;;6.55;100.00
75221;BME280;63802;53.232;6.570;2023-12-20T06:43:13;100964.19;;;6.49;100.00
75221;BME280;63802;53.232;6.570;2023-12-20T06:45:39;100953.06;;;6.42;100.00
75221;BME280;63802;53.232;6.570;2023-12-20T06:48:05;100955.13;;;6.45;100.00
75221;BME280;63802;53.232;6.570;2023-12-20T06:50:30;100947.47;;;6.47;100.00
75221;BME280;63802;53.232;6.570;2023-12-20T06:52:56;100953.59;;;6.56;100.00
75221;BME280;63802;53.232;6.570;2023-12-20T06:55:21;100950.44;;;6.54;100.00
75221;BME280;63802;53.232;6.570;2023-12-20T06:57:46;100940.69;;;6.53;100.00
75221;BME280;63802;53.232;6.570;2023-12-20T07:00:12;100941.84;;;6.52;100.00
75221;BME280;63802;53.232;6.570;2023-12-20T07:02:38;100943.59;;;6.48;100.00
75221;BME280;63802;53.232;6.570;2023-12-20T07:05:04;100940.25;;;6.51;100.00
75221;BME280;63802;53.232;6.570;2023-12-20T07:07:30;100949.78;;;6.57;100.00
75221;BME280;63802;53.232;6.570;2023-12-20T07:09:55;100940.25;;;6.51;100.00
75221;BME280;63802;53.232;6.570;2023-12-20T07:12:21;100935.28;;;6.53;100.00
75221;BME280;63802;53.232;6.570;2023-12-20T07:14:47;100921.25;;;6.51;100.00
75221;BME280;63802;53.232;6.570;2023-12-20T07:17:12;100921.47;;;6.46;100.00
75221;BME280;63802;53.232;6.570;2023-12-20T07:19:40;100909.00;;;6.66;100.00
75221;BME280;63802;53.232;6.570;2023-12-20T07:22:06;100918.16;;;6.61;100.00
75221;BME280;63802;53.232;6.570;2023-12-20T07:24:32;100919.72;;;6.62;100.00
75221;BME280;63802;53.232;6.570;2023-12-20T07:26:59;100931.16;;;6.68;100.00
75221;BME280;63802;53.232;6.570;2023-12-20T07:29:25;100898.41;;;6.40;100.00
75221;BME280;63802;53.232;6.570;2023-12-20T07:31:51;100938.09;;;6.78;100.00
75221;BME280;63802;53.232;6.570;2023-12-20T07:34:17;100911.47;;;6.59;100.00
75221;BME280;63802;53.232;6.570;2023-12-20T07:36:43;100926.44;;;6.77;100.00
75221;BME280;63802;53.232;6.570;2023-12-20T07:39:08;100913.84;;;6.60;100.00
75221;BME280;63802;53.232;6.570;2023-12-20T07:41:34;100936.38;;;6.73;100.00
75221;BME280;63802;53.232;6.570;2023-12-20T07:43:59;100940.59;;;6.83;100.00
75221;BME280;63802;53.232;6.570;2023-12-20T07:46:25;100943.50;;;6.78;100.00
75221;BME280;63802;53.232;6.570;2023-12-20T07:48:50;100949.72;;;6.78;100.00
75221;BME280;63802;53.232;6.570;2023-12-20T07:51:16;100955.25;;;6.82;100.00
75221;BME280;63802;53.232;6.570;2023-12-20T07:53:41;100940.34;;;6.75;100.00
75221;BME280;63802;53.232;6.570;2023-12-20T07:56:14;100945.09;;;6.79;100.00
75221;BME280;63802;53.232;6.570;2023-12-20T07:58:40;100928.44;;;6.68;100.00
75221;BME280;63802;53.232;6.570;2023-12-20T08:01:06;100954.34;;;6.78;100.00
75221;BME280;63802;53.232;6.570;2023-12-20T08:03:31;100947.69;;;6.75;100.00
75221;BME280;63802;53.232;6.570;2023-12-20T08:05:57;100948.13;;;6.77;100.00
75221;BME280;63802;53.232;6.570;2023-12-20T08:08:24;100957.53;;;6.80;100.00
75221;BME280;63802;53.232;6.570;2023-12-20T08:10:50;100968.06;;;6.81;100.00
75221;BME280;63802;53.232;6.570;2023-12-20T08:13:15;100965.03;;;6.95;100.00
75221;BME280;63802;53.232;6.570;2023-12-20T08:15:40;100954.59;;;6.85;100.00
75221;BME280;63802;53.232;6.570;2023-12-20T08:18:06;100961.75;;;6.89;100.00
75221;BME280;63802;53.232;6.570;2023-12-20T08:20:31;100968.41;;;6.92;100.00
75221;BME280;63802;53.232;6.570;2023-12-20T08:22:57;100938.63;;;6.71;100.00
75221;BME280;63802;53.232;6.570;2023-12-20T08:25:22;100966.63;;;6.96;100.00
75221;BME280;63802;53.232;6.570;2023-12-20T08:27:47;100922.69;;;6.69;100.00
75221;BME280;63802;53.232;6.570;2023-12-20T08:30:13;100932.88;;;6.72;100.00
75221;BME280;63802;53.232;6.570;2023-12-20T08:32:38;100953.03;;;6.84;100.00
75221;BME280;63802;53.232;6.570;2023-12-20T08:35:04;101011.63;;;6.97;100.00
75221;BME280;63802;53.232;6.570;2023-12-20T08:37:31;101011.75;;;6.38;100.00
75221;BME280;63802;53.232;6.570;2023-12-20T08:39:57;101021.31;;;5.86;100.00
75221;BME280;63802;53.232;6.570;2023-12-20T08:42:22;101029.19;;;5.62;100.00
75221;BME280;63802;53.232;6.570;2023-12-20T08:44:49;101045.16;;;5.46;100.00
75221;BME280;63802;53.232;6.570;2023-12-20T08:47:16;101021.81;;;5.24;100.00
75221;BME280;63802;53.232;6.570;2023-12-20T08:49:42;101014.81;;;5.06;100.00
75221;BME280;63802;53.232;6.570;2023-12-20T08:52:08;101029.78;;;5.12;100.00
75221;BME280;63802;53.232;6.570;2023-12-20T08:54:34;101004.06;;;4.89;100.00
75221;BME280;63802;53.232;6.570;2023-12-20T08:56:59;101006.75;;;4.81;100.00
75221;BME280;63802;53.232;6.570;2023-12-20T08:59:25;101027.91;;;4.96;100.00
75221;BME280;63802;53.232;6.570;2023-12-20T09:01:50;101018.50;;;4.93;100.00
75221;BME280;63802;53.232;6.570;2023-12-20T09:04:20;101011.03;;;4.90;100.00
75221;BME280;63802;53.232;6.570;2023-12-20T09:06:45;101037.75;;;5.00;100.00
75221;BME280;63802;53.232;6.570;2023-12-20T09:09:11;101001.50;;;4.84;100.00
75221;BME280;63802;53.232;6.570;2023-12-20T09:11:39;101012.00;;;4.94;100.00
75221;BME280;63802;53.232;6.570;2023-12-20T09:14:04;101006.09;;;5.01;100.00
75221;BME280;63802;53.232;6.570;2023-12-20T09:16:33;100954.13;;;4.78;100.00
75221;BME280;63802;53.232;6.570;2023-12-20T09:18:58;101012.63;;;5.08;100.00
75221;BME280;63802;53.232;6.570;2023-12-20T09:21:23;100987.47;;;4.99;100.00
75221;BME280;63802;53.232;6.570;2023-12-20T09:23:49;100982.72;;;4.96;100.00
75221;BME280;63802;53.232;6.570;2023-12-20T09:26:14;100992.72;;;5.04;100.00
75221;BME280;63802;53.232;6.570;2023-12-20T09:28:40;101011.97;;;5.03;100.00
75221;BME280;63802;53.232;6.570;2023-12-20T09:31:05;101001.78;;;5.00;100.00
75221;BME280;63802;53.232;6.570;2023-12-20T09:33:32;100997.34;;;4.95;100.00
75221;BME280;63802;53.232;6.570;2023-12-20T09:35:57;101005.13;;;4.97;100.00
75221;BME280;63802;53.232;6.570;2023-12-20T09:38:23;101005.78;;;4.94;100.00
75221;BME280;63802;53.232;6.570;2023-12-20T09:40:48;101001.19;;;4.94;100.00
75221;BME280;63802;53.232;6.570;2023-12-20T09:43:15;101026.63;;;4.93;100.00
75221;BME280;63802;53.232;6.570;2023-12-20T09:45:46;101029.81;;;4.95;100.00
75221;BME280;63802;53.232;6.570;2023-12-20T09:48:12;101025.53;;;4.94;100.00
75221;BME280;63802;53.232;6.570;2023-12-20T09:50:41;101034.59;;;4.98;100.00
75221;BME280;63802;53.232;6.570;2023-12-20T09:53:12;101009.41;;;5.06;100.00
75221;BME280;63802;53.232;6.570;2023-12-20T09:55:41;100982.44;;;4.89;100.00
75221;BME280;63802;53.232;6.570;2023-12-20T09:58:06;100993.19;;;5.06;100.00
75221;BME280;63802;53.232;6.570;2023-12-20T10:00:34;101007.22;;;5.08;100.00
75221;BME280;63802;53.232;6.570;2023-12-20T10:03:00;100976.72;;;4.82;100.00
75221;BME280;63802;53.232;6.570;2023-12-20T10:05:32;101014.06;;;5.06;100.00
75221;BME280;63802;53.232;6.570;2023-12-20T10:07:59;101026.22;;;5.37;100.00
75221;BME280;63802;53.232;6.570;2023-12-20T10:10:25;101039.53;;;5.60;100.00
75221;BME280;63802;53.232;6.570;2023-12-20T10:13:11;101037.22;;;5.79;100.00
75221;BME280;63802;53.232;6.570;2023-12-20T10:15:37;101035.63;;;5.95;100.00
75221;BME280;63802;53.232;6.570;2023-12-20T10:18:04;101038.50;;;5.90;100.00
75221;BME280;63802;53.232;6.570;2023-12-20T10:20:30;101038.28;;;6.03;100.00
75221;BME280;63802;53.232;6.570;2023-12-20T10:22:57;101043.25;;;5.93;100.00
75221;BME280;63802;53.232;6.570;2023-12-20T10:25:23;101041.09;;;6.16;100.00
75221;BME280;63802;53.232;6.570;2023-12-20T10:27:50;101045.06;;;6.18;100.00
75221;BME280;63802;53.232;6.570;2023-12-20T10:30:33;101041.03;;;6.24;100.00
75221;BME280;63802;53.232;6.570;2023-12-20T10:32:59;101047.50;;;6.32;100.00
75221;BME280;63802;53.232;6.570;2023-12-20T10:35:24;101038.75;;;6.35;100.00
75221;BME280;63802;53.232;6.570;2023-12-20T10:37:55;101033.84;;;6.28;100.00
75221;BME280;63802;53.232;6.570;2023-12-20T10:40:21;101014.13;;;6.19;100.00
75221;BME280;63802;53.232;6.570;2023-12-20T10:42:47;101021.94;;;6.41;100.00
75221;BME280;63802;53.232;6.570;2023-12-20T10:45:12;101030.53;;;6.43;100.00
75221;BME280;63802;53.232;6.570;2023-12-20T10:47:39;101029.91;;;6.17;100.00
75221;BME280;63802;53.232;6.570;2023-12-20T10:50:06;101026.00;;;6.06;100.00
75221;BME280;63802;53.232;6.570;2023-12-20T10:52:32;101033.50;;;6.00;100.00
75221;BME280;63802;53.232;6.570;2023-12-20T10:54:57;101031.50;;;5.89;100.00
75221;BME280;63802;53.232;6.570;2023-12-20T10:57:26;101036.25;;;5.92;100.00
75221;BME280;63802;53.232;6.570;2023-12-20T10:59:53;101038.00;;;5.88;100.00
75221;BME280;63802;53.232;6.570;2023-12-20T11:02:19;101031.50;;;5.89;100.00
75221;BME280;63802;53.232;6.570;2023-12-20T11:05:22;101044.53;;;5.95;100.00
75221;BME280;63802;53.232;6.570;2023-12-20T11:08:02;101046.13;;;5.96;100.00
75221;BME280;63802;53.232;6.570;2023-12-20T11:10:31;101044.97;;;5.97;100.00
75221;BME280;63802;53.232;6.570;2023-12-20T11:13:06;101043.34;;;6.05;100.00
75221;BME280;63802;53.232;6.570;2023-12-20T11:15:36;101037.28;;;6.08;100.00
75221;BME280;63802;53.232;6.570;2023-12-20T11:18:04;101012.47;;;5.97;100.00
75221;BME280;63802;53.232;6.570;2023-12-20T11:20:37;101042.69;;;6.17;100.00
75221;BME280;63802;53.232;6.570;2023-12-20T11:23:08;101046.63;;;6.19;100.00
75221;BME280;63802;53.232;6.570;2023-12-20T11:25:47;101011.88;;;5.92;100.00
75221;BME280;63802;53.232;6.570;2023-12-20T11:28:14;101034.50;;;5.96;100.00
75221;BME280;63802;53.232;6.570;2023-12-20T11:30:55;101013.97;;;5.86;100.00
75221;BME280;63802;53.232;6.570;2023-12-20T11:33:22;101021.75;;;5.96;100.00
75221;BME280;63802;53.232;6.570;2023-12-20T11:35:49;101039.63;;;6.18;100.00
75221;BME280;63802;53.232;6.570;2023-12-20T11:38:14;101037.19;;;6.25;100.00
75221;BME280;63802;53.232;6.570;2023-12-20T11:40:42;101026.88;;;6.19;100.00
75221;BME280;63802;53.232;6.570;2023-12-20T11:43:08;101039.25;;;6.28;100.00
75221;BME280;63802;53.232;6.570;2023-12-20T11:45:33;101025.25;;;6.26;100.00
75221;BME280;63802;53.232;6.570;2023-12-20T11:48:02;101016.34;;;6.17;100.00
75221;BME280;63802;53.232;6.570;2023-12-20T11:50:28;101039.53;;;6.35;100.00
75221;BME280;63802;53.232;6.570;2023-12-20T11:52:56;101020.47;;;6.23;100.00
75221;BME280;63802;53.232;6.570;2023-12-20T11:55:22;101002.72;;;6.05;100.00
75221;BME280;63802;53.232;6.570;2023-12-20T11:57:50;101034.50;;;6.25;100.00
75221;BME280;63802;53.232;6.570;2023-12-20T12:00:15;101019.53;;;6.19;100.00
75221;BME280;63802;53.232;6.570;2023-12-20T12:02:41;101022.84;;;6.25;100.00
75221;BME280;63802;53.232;6.570;2023-12-20T12:05:08;101028.63;;;6.23;100.00
75221;BME280;63802;53.232;6.570;2023-12-20T12:07:34;100994.75;;;6.08;100.00
75221;BME280;63802;53.232;6.570;2023-12-20T12:10:00;101013.63;;;6.26;100.00
75221;BME280;63802;53.232;6.570;2023-12-20T12:12:26;101011.72;;;6.26;100.00
75221;BME280;63802;53.232;6.570;2023-12-20T12:14:54;101007.59;;;6.20;100.00
75221;BME280;63802;53.232;6.570;2023-12-20T12:17:19;100989.19;;;6.05;100.00
75221;BME280;63802;53.232;6.570;2023-12-20T12:19:45;100988.88;;;6.06;100.00
75221;BME280;63802;53.232;6.570;2023-12-20T12:22:15;100967.13;;;5.94;100.00
75221;BME280;63802;53.232;6.570;2023-12-20T12:24:45;101001.81;;;6.22;100.00
75221;BME280;63802;53.232;6.570;2023-12-20T12:27:12;101001.06;;;6.21;100.00
75221;BME280;63802;53.232;6.570;2023-12-20T12:29:38;100996.13;;;6.15;100.00
75221;BME280;63802;53.232;6.570;2023-12-20T12:32:08;101005.22;;;6.19;100.00
75221;BME280;63802;53.232;6.570;2023-12-20T12:34:34;101004.22;;;6.23;100.00
75221;BME280;63802;53.232;6.570;2023-12-20T12:36:59;101001.69;;;6.18;100.00
75221;BME280;63802;53.232;6.570;2023-12-20T12:39:25;101005.78;;;6.24;100.00
75221;BME280;63802;53.232;6.570;2023-12-20T12:41:51;100982.94;;;6.13;100.00
75221;BME280;63802;53.232;6.570;2023-12-20T12:44:17;100994.50;;;6.22;100.00